SWA4390 KBNA-KTYS
Flight info
| Callsign | SWA4390 |
|---|---|
| Flight time | 0h 28m |
| Altitude | 17000 |
| Route | TAZMO4 BURME |
| Aircraft | B737/M-SDE2E3FGHIRWXY/LB1 |
Departure
| Time | 2026-04-25 20:19 |
|---|---|
| Airport | Nashville International Airport (KBNA) |
Arrival
| Time | 2026-04-25 20:47 |
|---|---|
| Airport | McGhee Tyson Airport (KTYS) |
| Time | Latitude | Longitude | Altitude | Speed | Heading |
|---|---|---|---|---|---|
| 2026-04-25 19:54 | 36.12977 | -86.66952 | 568 ft | 0 kts | 298° |
| 2026-04-25 20:06 | 36.12975 | -86.66947 | 577 ft | 3 kts | 298° |
| 2026-04-25 20:06 | 36.12962 | -86.66918 | 576 ft | 4 kts | 301° |
| 2026-04-25 20:06 | 36.12947 | -86.66890 | 573 ft | 4 kts | 304° |
| 2026-04-25 20:07 | 36.12932 | -86.66863 | 568 ft | 4 kts | 306° |
| 2026-04-25 20:07 | 36.12915 | -86.66836 | 568 ft | 4 kts | 309° |
| 2026-04-25 20:07 | 36.12898 | -86.66811 | 570 ft | 3 kts | 311° |
| 2026-04-25 20:07 | 36.12896 | -86.66809 | 572 ft | 0 kts | 311° |
| 2026-04-25 20:11 | 36.12907 | -86.66819 | 568 ft | 5 kts | 307° |
| 2026-04-25 20:12 | 36.12872 | -86.66818 | 568 ft | 7 kts | 153° |
| 2026-04-25 20:12 | 36.12827 | -86.66790 | 572 ft | 7 kts | 158° |
| 2026-04-25 20:12 | 36.12778 | -86.66781 | 571 ft | 8 kts | 192° |
| 2026-04-25 20:12 | 36.12741 | -86.66807 | 570 ft | 10 kts | 219° |
| 2026-04-25 20:13 | 36.12664 | -86.66879 | 569 ft | 14 kts | 202° |
| 2026-04-25 20:13 | 36.12553 | -86.66913 | 571 ft | 18 kts | 193° |
| 2026-04-25 20:13 | 36.12444 | -86.66936 | 571 ft | 16 kts | 149° |
| 2026-04-25 20:13 | 36.12367 | -86.66846 | 572 ft | 15 kts | 122° |
| 2026-04-25 20:14 | 36.12329 | -86.66728 | 572 ft | 14 kts | 108° |
| 2026-04-25 20:14 | 36.12310 | -86.66649 | 569 ft | 9 kts | 106° |
| 2026-04-25 20:14 | 36.12291 | -86.66575 | 570 ft | 10 kts | 108° |
| 2026-04-25 20:14 | 36.12221 | -86.66530 | 572 ft | 16 kts | 195° |
| 2026-04-25 20:15 | 36.12085 | -86.66585 | 573 ft | 24 kts | 198° |
| 2026-04-25 20:15 | 36.11931 | -86.66645 | 580 ft | 23 kts | 197° |
| 2026-04-25 20:15 | 36.11783 | -86.66705 | 583 ft | 22 kts | 198° |
| 2026-04-25 20:15 | 36.11645 | -86.66760 | 586 ft | 20 kts | 198° |
| 2026-04-25 20:16 | 36.11524 | -86.66808 | 589 ft | 12 kts | 198° |
| 2026-04-25 20:16 | 36.11447 | -86.66840 | 591 ft | 11 kts | 198° |
| 2026-04-25 20:16 | 36.11397 | -86.66860 | 591 ft | 0 kts | 198° |
| 2026-04-25 20:16 | 36.11392 | -86.66862 | 591 ft | 4 kts | 198° |
| 2026-04-25 20:17 | 36.11351 | -86.66878 | 591 ft | 7 kts | 197° |
| 2026-04-25 20:17 | 36.11317 | -86.66869 | 590 ft | 0 kts | 133° |
| 2026-04-25 20:17 | 36.11310 | -86.66859 | 590 ft | 5 kts | 126° |
| 2026-04-25 20:17 | 36.11291 | -86.66789 | 589 ft | 11 kts | 95° |
| 2026-04-25 20:18 | 36.11332 | -86.66744 | 590 ft | 0 kts | 18° |
| 2026-04-25 20:18 | 36.11635 | -86.66621 | 589 ft | 95 kts | 18° |
| 2026-04-25 20:19 | 36.12530 | -86.66262 | 645 ft | 171 kts | 17° |
| 2026-04-25 20:19 | 36.13785 | -86.65725 | 1371 ft | 203 kts | 19° |
| 2026-04-25 20:19 | 36.15197 | -86.65089 | 2163 ft | 230 kts | 20° |
| 2026-04-25 20:19 | 36.16673 | -86.64209 | 3228 ft | 239 kts | 41° |
| 2026-04-25 20:20 | 36.17575 | -86.62450 | 4469 ft | 254 kts | 74° |
| 2026-04-25 20:20 | 36.17503 | -86.60227 | 5521 ft | 269 kts | 107° |
| 2026-04-25 20:20 | 36.16871 | -86.58016 | 6628 ft | 276 kts | 107° |
| 2026-04-25 20:20 | 36.16263 | -86.55720 | 7638 ft | 285 kts | 105° |
| 2026-04-25 20:21 | 36.15688 | -86.53330 | 8671 ft | 292 kts | 104° |
| 2026-04-25 20:21 | 36.15151 | -86.50898 | 9713 ft | 299 kts | 104° |
| 2026-04-25 20:21 | 36.14631 | -86.48381 | 10592 ft | 309 kts | 103° |
| 2026-04-25 20:21 | 36.14101 | -86.45682 | 11022 ft | 335 kts | 103° |
| 2026-04-25 20:22 | 36.13560 | -86.42819 | 11849 ft | 345 kts | 103° |
| 2026-04-25 20:22 | 36.13377 | -86.41838 | 12170 ft | 348 kts | 103° |
| 2026-04-25 20:22 | 36.12475 | -86.36922 | 13820 ft | 356 kts | 103° |
| 2026-04-25 20:22 | 36.11935 | -86.33952 | 14625 ft | 359 kts | 103° |
| 2026-04-25 20:23 | 36.11390 | -86.30943 | 14921 ft | 357 kts | 104° |
| 2026-04-25 20:23 | 36.10844 | -86.27930 | 14979 ft | 360 kts | 104° |
| 2026-04-25 20:23 | 36.10297 | -86.24919 | 14994 ft | 356 kts | 104° |
| 2026-04-25 20:23 | 36.09752 | -86.21916 | 15074 ft | 362 kts | 104° |
| 2026-04-25 20:24 | 36.09195 | -86.18858 | 15934 ft | 365 kts | 104° |
| 2026-04-25 20:24 | 36.08640 | -86.15805 | 16732 ft | 364 kts | 104° |
| 2026-04-25 20:24 | 36.08084 | -86.12758 | 16997 ft | 362 kts | 104° |
| 2026-04-25 20:24 | 36.07534 | -86.09754 | 16988 ft | 361 kts | 105° |
| 2026-04-25 20:25 | 36.07029 | -86.06725 | 16998 ft | 358 kts | 100° |
| 2026-04-25 20:25 | 36.06759 | -86.03660 | 17008 ft | 359 kts | 96° |
| 2026-04-25 20:25 | 36.06567 | -86.00567 | 17010 ft | 360 kts | 96° |
| 2026-04-25 20:25 | 36.06386 | -85.97475 | 17009 ft | 361 kts | 96° |
| 2026-04-25 20:26 | 36.06197 | -85.94415 | 17003 ft | 361 kts | 96° |
| 2026-04-25 20:26 | 36.05993 | -85.91309 | 16999 ft | 362 kts | 96° |
| 2026-04-25 20:26 | 36.05781 | -85.88207 | 17002 ft | 362 kts | 96° |
| 2026-04-25 20:26 | 36.05563 | -85.85108 | 16994 ft | 361 kts | 96° |
| 2026-04-25 20:27 | 36.05344 | -85.82011 | 16985 ft | 361 kts | 97° |
| 2026-04-25 20:27 | 36.05124 | -85.78925 | 16982 ft | 360 kts | 96° |
| 2026-04-25 20:27 | 36.04909 | -85.75878 | 16993 ft | 359 kts | 96° |
| 2026-04-25 20:27 | 36.04696 | -85.72797 | 17004 ft | 361 kts | 96° |
| 2026-04-25 20:28 | 36.04480 | -85.69691 | 16981 ft | 363 kts | 96° |
| 2026-04-25 20:28 | 36.04263 | -85.66578 | 16974 ft | 363 kts | 96° |
| 2026-04-25 20:28 | 36.04048 | -85.63483 | 16973 ft | 361 kts | 96° |
| 2026-04-25 20:28 | 36.03831 | -85.60393 | 16975 ft | 359 kts | 96° |
| 2026-04-25 20:29 | 36.03615 | -85.57322 | 16969 ft | 357 kts | 97° |
| 2026-04-25 20:29 | 36.03402 | -85.54301 | 16980 ft | 356 kts | 97° |
| 2026-04-25 20:29 | 36.03185 | -85.51255 | 16984 ft | 356 kts | 97° |
| 2026-04-25 20:29 | 36.02968 | -85.48202 | 16982 ft | 356 kts | 97° |
| 2026-04-25 20:30 | 36.02749 | -85.45145 | 16982 ft | 357 kts | 97° |
| 2026-04-25 20:30 | 36.02530 | -85.42087 | 16988 ft | 358 kts | 97° |
| 2026-04-25 20:30 | 36.02309 | -85.39023 | 16993 ft | 359 kts | 97° |
| 2026-04-25 20:30 | 36.02087 | -85.35951 | 16991 ft | 360 kts | 97° |
| 2026-04-25 20:31 | 36.01863 | -85.32864 | 16985 ft | 360 kts | 97° |
| 2026-04-25 20:31 | 36.01639 | -85.29782 | 17034 ft | 361 kts | 97° |
| 2026-04-25 20:31 | 36.01415 | -85.26722 | 17023 ft | 361 kts | 97° |
| 2026-04-25 20:31 | 36.01188 | -85.23621 | 17044 ft | 362 kts | 97° |
| 2026-04-25 20:32 | 36.00959 | -85.20510 | 17024 ft | 362 kts | 97° |
| 2026-04-25 20:32 | 36.00732 | -85.17425 | 17035 ft | 360 kts | 97° |
| 2026-04-25 20:32 | 36.00508 | -85.14387 | 17032 ft | 359 kts | 97° |
| 2026-04-25 20:32 | 36.00280 | -85.11323 | 17033 ft | 358 kts | 97° |
| 2026-04-25 20:33 | 36.00052 | -85.08267 | 17035 ft | 357 kts | 97° |
| 2026-04-25 20:33 | 35.99699 | -85.05235 | 17038 ft | 358 kts | 105° |
| 2026-04-25 20:33 | 35.98897 | -85.02328 | 17043 ft | 357 kts | 116° |
| 2026-04-25 20:33 | 35.98553 | -85.01387 | 16977 ft | 357 kts | 117° |
| 2026-04-25 20:34 | 35.96782 | -84.96762 | 16343 ft | 359 kts | 118° |
| 2026-04-25 20:34 | 35.95708 | -84.94001 | 15917 ft | 354 kts | 117° |
| 2026-04-25 20:34 | 35.94645 | -84.91259 | 15472 ft | 351 kts | 117° |
| 2026-04-25 20:34 | 35.93600 | -84.88549 | 14997 ft | 348 kts | 117° |
| 2026-04-25 20:35 | 35.92566 | -84.85857 | 14557 ft | 346 kts | 117° |
| 2026-04-25 20:35 | 35.91552 | -84.83212 | 14110 ft | 343 kts | 116° |
| 2026-04-25 20:35 | 35.90534 | -84.80551 | 13667 ft | 341 kts | 116° |
| 2026-04-25 20:35 | 35.89521 | -84.77904 | 13174 ft | 340 kts | 116° |
| 2026-04-25 20:36 | 35.88512 | -84.75267 | 12689 ft | 339 kts | 116° |
| 2026-04-25 20:36 | 35.87507 | -84.72640 | 12209 ft | 337 kts | 116° |
| 2026-04-25 20:36 | 35.86511 | -84.70041 | 11759 ft | 334 kts | 116° |
| 2026-04-25 20:36 | 35.85537 | -84.67500 | 11297 ft | 330 kts | 116° |
| 2026-04-25 20:37 | 35.84558 | -84.64947 | 10857 ft | 327 kts | 116° |
| 2026-04-25 20:37 | 35.83589 | -84.62422 | 10412 ft | 324 kts | 116° |
| 2026-04-25 20:37 | 35.82628 | -84.59921 | 10146 ft | 316 kts | 116° |
| 2026-04-25 20:37 | 35.81704 | -84.57516 | 9973 ft | 305 kts | 116° |
| 2026-04-25 20:38 | 35.80824 | -84.55228 | 9849 ft | 293 kts | 116° |
| 2026-04-25 20:38 | 35.79935 | -84.52921 | 9255 ft | 298 kts | 116° |
| 2026-04-25 20:38 | 35.79049 | -84.50622 | 8836 ft | 296 kts | 115° |
| 2026-04-25 20:38 | 35.78169 | -84.48338 | 8446 ft | 294 kts | 115° |
| 2026-04-25 20:39 | 35.77294 | -84.46073 | 8071 ft | 291 kts | 115° |
| 2026-04-25 20:39 | 35.76428 | -84.43830 | 7698 ft | 289 kts | 115° |
| 2026-04-25 20:39 | 35.75575 | -84.41622 | 7337 ft | 287 kts | 115° |
| 2026-04-25 20:39 | 35.75287 | -84.40875 | 7222 ft | 286 kts | 115° |
| 2026-04-25 20:40 | 35.73870 | -84.37214 | 6615 ft | 283 kts | 114° |
| 2026-04-25 20:40 | 35.73025 | -84.35030 | 6265 ft | 281 kts | 114° |
| 2026-04-25 20:40 | 35.72183 | -84.32857 | 5916 ft | 280 kts | 114° |
| 2026-04-25 20:40 | 35.71344 | -84.30691 | 5547 ft | 281 kts | 114° |
| 2026-04-25 20:41 | 35.70787 | -84.29254 | 5292 ft | 280 kts | 114° |
| 2026-04-25 20:41 | 35.69682 | -84.26399 | 4829 ft | 276 kts | 115° |
| 2026-04-25 20:41 | 35.69126 | -84.24970 | 4680 ft | 271 kts | 115° |
| 2026-04-25 20:41 | 35.68077 | -84.22273 | 4513 ft | 257 kts | 115° |
| 2026-04-25 20:42 | 35.67562 | -84.20951 | 4434 ft | 250 kts | 115° |
| 2026-04-25 20:42 | 35.66878 | -84.19029 | 4305 ft | 241 kts | 103° |
| 2026-04-25 20:42 | 35.66995 | -84.17071 | 4213 ft | 226 kts | 63° |
| 2026-04-25 20:42 | 35.67960 | -84.15743 | 4144 ft | 202 kts | 37° |
| 2026-04-25 20:43 | 35.68970 | -84.14624 | 4062 ft | 192 kts | 43° |
| 2026-04-25 20:43 | 35.69934 | -84.13439 | 3811 ft | 196 kts | 44° |
| 2026-04-25 20:43 | 35.70893 | -84.12256 | 3547 ft | 193 kts | 44° |
| 2026-04-25 20:43 | 35.71825 | -84.11112 | 3310 ft | 185 kts | 44° |
| 2026-04-25 20:44 | 35.72719 | -84.10015 | 3083 ft | 179 kts | 44° |
| 2026-04-25 20:44 | 35.73593 | -84.08942 | 2846 ft | 176 kts | 44° |
| 2026-04-25 20:44 | 35.74453 | -84.07887 | 2610 ft | 178 kts | 45° |
| 2026-04-25 20:44 | 35.75326 | -84.06818 | 2389 ft | 174 kts | 45° |
| 2026-04-25 20:45 | 35.76142 | -84.05816 | 2158 ft | 160 kts | 45° |
| 2026-04-25 20:45 | 35.76925 | -84.04856 | 1953 ft | 157 kts | 45° |
| 2026-04-25 20:45 | 35.77672 | -84.03942 | 1725 ft | 144 kts | 45° |
| 2026-04-25 20:45 | 35.78356 | -84.03102 | 1531 ft | 134 kts | 45° |
| 2026-04-25 20:46 | 35.78996 | -84.02312 | 1378 ft | 132 kts | 45° |
| 2026-04-25 20:46 | 35.79653 | -84.01503 | 1233 ft | 135 kts | 45° |
| 2026-04-25 20:46 | 35.80319 | -84.00686 | 1068 ft | 135 kts | 45° |
| 2026-04-25 20:46 | 35.80967 | -83.99891 | 979 ft | 122 kts | 44° |
| 2026-04-25 20:47 | 35.81496 | -83.99249 | 971 ft | 86 kts | 44° |
| 2026-04-25 20:47 | 35.81817 | -83.98860 | 969 ft | 43 kts | 44° |
| 2026-04-25 20:47 | 35.82013 | -83.98625 | 973 ft | 39 kts | 44° |
| 2026-04-25 20:47 | 35.82146 | -83.98460 | 972 ft | 16 kts | 56° |
| 2026-04-25 20:48 | 35.82129 | -83.98350 | 970 ft | 13 kts | 135° |
| 2026-04-25 20:48 | 35.82053 | -83.98356 | 973 ft | 13 kts | 226° |
| 2026-04-25 20:48 | 35.81990 | -83.98433 | 975 ft | 12 kts | 224° |
| 2026-04-25 20:48 | 35.81929 | -83.98505 | 978 ft | 12 kts | 223° |
| 2026-04-25 20:49 | 35.81867 | -83.98574 | 973 ft | 12 kts | 222° |
| 2026-04-25 20:49 | 35.81809 | -83.98645 | 978 ft | 12 kts | 226° |